Time,TemperatureF,DewpointF,PressureIn,WindDirection,WindDirectionDegrees,WindSpeedMPH,WindSpeedGustMPH,Humidity,HourlyPrecipIn,Conditions,Clouds,dailyrainin,SolarRadiationWatts/m^2,SoftwareType,DateUTC
2013-06-30 00:02:00,92.0,32.0,-100.00,NW,316,15.0,21.0,12,0.00,,,0.00,0.000000,,2013-06-30 07:02:00,
2013-06-30 00:12:00,92.0,32.0,-100.00,NW,316,15.0,21.0,12,0.00,,,0.00,0.000000,,2013-06-30 07:12:00,
2013-06-30 00:22:00,92.0,32.0,-100.00,NW,316,15.0,21.0,12,0.00,,,0.00,0.000000,,2013-06-30 07:22:00,
2013-06-30 00:53:00,90.0,34.0,-100.00,NNW,333,11.0,18.0,14,0.00,,,0.00,0.000000,,2013-06-30 07:53:00,
2013-06-30 01:02:00,90.0,34.0,-100.00,NNW,333,11.0,18.0,14,0.00,,,0.00,0.000000,,2013-06-30 08:02:00,
2013-06-30 01:11:00,90.0,34.0,-100.00,NNW,333,11.0,18.0,14,0.00,,,0.00,0.000000,,2013-06-30 08:11:00,
2013-06-30 01:22:00,90.0,34.0,-100.00,NNW,333,11.0,18.0,14,0.00,,,0.00,0.000000,,2013-06-30 08:22:00,
2013-06-30 01:53:00,89.0,32.0,-100.00,NW,315,8.0,16.0,13,-99.99,,,0.00,0.000000,,2013-06-30 08:53:00,
2013-06-30 02:01:00,89.0,32.0,-100.00,NW,315,8.0,16.0,13,-99.99,,,0.00,0.000000,,2013-06-30 09:01:00,
2013-06-30 02:11:00,89.0,32.0,-100.00,NW,315,8.0,16.0,13,-99.99,,,0.00,0.000000,,2013-06-30 09:11:00,
2013-06-30 02:23:00,89.0,32.0,-100.00,NW,315,8.0,16.0,13,-99.99,,,0.00,0.000000,,2013-06-30 09:23:00,
2013-06-30 02:53:00,87.0,30.0,-100.00,NW,316,5.0,11.0,13,-99.99,,,0.00,0.000000,,2013-06-30 09:53:00,
2013-06-30 03:02:00,87.0,30.0,-100.00,NW,316,5.0,11.0,13,-99.99,,,0.00,0.000000,,2013-06-30 10:02:00,
2013-06-30 03:11:00,87.0,30.0,-100.00,NW,316,5.0,11.0,13,-99.99,,,0.00,0.000000,,2013-06-30 10:11:00,
2013-06-30 03:22:00,87.0,30.0,-100.00,NW,316,5.0,11.0,13,-99.99,,,0.00,0.000000,,2013-06-30 10:22:00,
2013-06-30 03:53:00,86.0,31.0,-100.00,East,80,0.0,13.0,14,0.00,,,-99.99,0.000000,,2013-06-30 10:53:00,
2013-06-30 04:02:00,86.0,31.0,-100.00,East,80,0.0,13.0,14,0.00,,,-99.99,0.000000,,2013-06-30 11:02:00,
2013-06-30 04:11:00,86.0,31.0,-100.00,East,80,0.0,13.0,14,0.00,,,-99.99,0.000000,,2013-06-30 11:11:00,
2013-06-30 04:22:00,86.0,31.0,-100.00,East,80,0.0,13.0,14,0.00,,,-99.99,0.000000,,2013-06-30 11:22:00,
2013-06-30 04:53:00,87.0,32.0,-100.00,NW,304,3.0,10.0,14,-99.99,,,0.00,0.000000,,2013-06-30 11:53:00,
2013-06-30 05:01:00,87.0,32.0,-100.00,NW,304,3.0,10.0,14,-99.99,,,0.00,0.000000,,2013-06-30 12:01:00,
2013-06-30 05:11:00,87.0,32.0,-100.00,NW,304,3.0,10.0,14,-99.99,,,0.00,0.000000,,2013-06-30 12:11:00,
2013-06-30 05:24:00,87.0,32.0,-100.00,NW,304,3.0,10.0,14,-99.99,,,0.00,0.000000,,2013-06-30 12:24:00,
2013-06-30 05:52:00,87.0,30.0,-100.00,SSW,199,0.0,5.0,13,0.00,,,0.00,0.000000,,2013-06-30 12:52:00,
2013-06-30 06:02:00,87.0,30.0,-100.00,SSW,199,0.0,5.0,13,0.00,,,0.00,0.000000,,2013-06-30 13:02:00,
2013-06-30 06:12:00,87.0,30.0,-100.00,SSW,199,0.0,5.0,13,0.00,,,0.00,0.000000,,2013-06-30 13:12:00,
2013-06-30 06:22:00,87.0,30.0,-100.00,SSW,199,0.0,5.0,13,0.00,,,0.00,0.000000,,2013-06-30 13:22:00,
2013-06-30 06:53:00,88.0,31.0,-100.00,South,170,5.0,11.0,13,0.00,,,0.00,34.000000,,2013-06-30 13:53:00,
2013-06-30 07:02:00,88.0,31.0,-100.00,South,170,5.0,11.0,13,0.00,,,0.00,34.000000,,2013-06-30 14:02:00,
2013-06-30 07:11:00,88.0,31.0,-100.00,South,170,5.0,11.0,13,0.00,,,0.00,34.000000,,2013-06-30 14:11:00,
2013-06-30 07:22:00,88.0,31.0,-100.00,South,170,5.0,11.0,13,0.00,,,0.00,34.000000,,2013-06-30 14:22:00,
2013-06-30 07:52:00,91.0,31.0,-100.00,SSE,166,0.0,4.0,12,-99.99,,,0.00,215.000000,,2013-06-30 14:52:00,
2013-06-30 09:53:00,95.0,34.0,-100.00,NE,35,10.0,15.0,12,0.00,,,0.00,710.000000,,2013-06-30 16:53:00,
2013-06-30 10:01:00,95.0,34.0,-100.00,NE,35,10.0,15.0,12,0.00,,,0.00,710.000000,,2013-06-30 17:01:00,
2013-06-30 10:11:00,95.0,34.0,-100.00,NE,35,10.0,15.0,12,0.00,,,0.00,710.000000,,2013-06-30 17:11:00,
2013-06-30 10:23:00,95.0,34.0,-100.00,NE,35,10.0,15.0,12,0.00,,,0.00,710.000000,,2013-06-30 17:23:00,
2013-06-30 11:53:00,102.0,32.0,-100.00,South,173,7.0,13.0,9,0.00,,,0.00,1105.000000,,2013-06-30 18:53:00,
2013-06-30 12:01:00,102.0,32.0,-100.00,South,173,7.0,13.0,9,0.00,,,0.00,1105.000000,,2013-06-30 19:01:00,
2013-06-30 12:11:00,102.0,32.0,-100.00,South,173,7.0,13.0,9,0.00,,,0.00,1105.000000,,2013-06-30 19:11:00,
2013-06-30 12:22:00,102.0,32.0,-100.00,South,173,7.0,13.0,9,0.00,,,0.00,1105.000000,,2013-06-30 19:22:00,
2013-06-30 12:53:00,101.0,32.0,-100.00,SSE,168,10.0,17.0,9,0.00,,,0.00,1195.000000,,2013-06-30 19:53:00,
2013-06-30 13:01:00,101.0,32.0,-100.00,SSE,168,10.0,17.0,9,0.00,,,0.00,1195.000000,,2013-06-30 20:01:00,
2013-06-30 13:11:00,101.0,32.0,-100.00,SSE,168,10.0,17.0,9,0.00,,,0.00,1195.000000,,2013-06-30 20:11:00,
2013-06-30 13:22:00,101.0,32.0,-100.00,SSE,168,10.0,17.0,9,0.00,,,0.00,1195.000000,,2013-06-30 20:22:00,
2013-06-30 13:52:00,104.0,31.0,-100.00,SSE,163,16.0,25.0,8,0.00,,,0.00,1247.000000,,2013-06-30 20:52:00,
2013-06-30 14:01:00,104.0,31.0,-100.00,SSE,163,16.0,25.0,8,0.00,,,0.00,1247.000000,,2013-06-30 21:01:00,
2013-06-30 14:11:00,104.0,31.0,-100.00,SSE,163,16.0,25.0,8,0.00,,,0.00,1247.000000,,2013-06-30 21:11:00,
2013-06-30 14:22:00,104.0,31.0,-100.00,SSE,163,16.0,25.0,8,0.00,,,0.00,1247.000000,,2013-06-30 21:22:00,
2013-06-30 14:53:00,106.0,29.0,-100.00,SSE,167,20.0,33.0,7,0.00,,,0.00,1190.000000,,2013-06-30 21:53:00,
2013-06-30 15:01:00,106.0,29.0,-100.00,SSE,167,20.0,33.0,7,0.00,,,0.00,1190.000000,,2013-06-30 22:01:00,
2013-06-30 15:11:00,106.0,29.0,-100.00,SSE,167,20.0,33.0,7,0.00,,,0.00,1190.000000,,2013-06-30 22:11:00,
2013-06-30 15:22:00,106.0,29.0,-100.00,SSE,167,20.0,33.0,7,0.00,,,0.00,1190.000000,,2013-06-30 22:22:00,
2013-06-30 15:53:00,107.0,26.0,-100.00,SW,227,6.0,27.0,6,0.00,,,0.00,1052.000000,,2013-06-30 22:53:00,
2013-06-30 16:01:00,107.0,26.0,-100.00,SW,227,6.0,27.0,6,0.00,,,0.00,1052.000000,,2013-06-30 23:01:00,
2013-06-30 16:11:00,107.0,26.0,-100.00,SW,227,6.0,27.0,6,0.00,,,0.00,1052.000000,,2013-06-30 23:11:00,
2013-06-30 16:22:00,107.0,26.0,-100.00,SW,227,6.0,27.0,6,0.00,,,0.00,1052.000000,,2013-06-30 23:22:00,
2013-06-30 16:53:00,103.0,30.0,-100.00,WSW,241,15.0,27.0,8,0.00,,,0.00,808.000000,,2013-06-30 23:53:00,
2013-06-30 17:01:00,103.0,30.0,-100.00,WSW,241,15.0,27.0,8,0.00,,,0.00,808.000000,,2013-07-01 00:01:00,
2013-06-30 17:11:00,103.0,30.0,-100.00,WSW,241,15.0,27.0,8,0.00,,,0.00,808.000000,,2013-07-01 00:11:00,
2013-06-30 17:22:00,103.0,30.0,-100.00,WSW,241,15.0,27.0,8,0.00,,,0.00,808.000000,,2013-07-01 00:22:00,
2013-06-30 17:52:00,103.0,30.0,-100.00,SW,230,16.0,37.0,8,0.00,,,0.00,651.000000,,2013-07-01 00:52:00,
2013-06-30 18:01:00,103.0,30.0,-100.00,SW,230,16.0,37.0,8,0.00,,,0.00,651.000000,,2013-07-01 01:01:00,
2013-06-30 18:11:00,103.0,30.0,-100.00,SW,230,16.0,37.0,8,0.00,,,0.00,651.000000,,2013-07-01 01:11:00,
2013-06-30 18:22:00,103.0,30.0,-100.00,SW,230,16.0,37.0,8,0.00,,,0.00,651.000000,,2013-07-01 01:22:00,
2013-06-30 18:52:00,101.0,26.0,-100.00,SW,228,14.0,32.0,7,0.00,,,0.00,283.000000,,2013-07-01 01:52:00,
2013-06-30 19:02:00,101.0,26.0,-100.00,SW,228,14.0,32.0,7,0.00,,,0.00,283.000000,,2013-07-01 02:02:00,
2013-06-30 19:11:00,101.0,26.0,-100.00,SW,228,14.0,32.0,7,0.00,,,0.00,283.000000,,2013-07-01 02:11:00,
2013-06-30 19:22:00,101.0,26.0,-100.00,SW,228,14.0,32.0,7,0.00,,,0.00,283.000000,,2013-07-01 02:22:00,
2013-06-30 19:54:00,98.0,23.0,-100.00,WNW,295,17.0,29.0,7,0.00,,,0.00,75.000000,,2013-07-01 02:54:00,
2013-06-30 20:01:00,98.0,23.0,-100.00,WNW,295,17.0,29.0,7,0.00,,,0.00,75.000000,,2013-07-01 03:01:00,
2013-06-30 20:11:00,98.0,23.0,-100.00,WNW,295,17.0,29.0,7,0.00,,,0.00,75.000000,,2013-07-01 03:11:00,
2013-06-30 20:23:00,98.0,23.0,-100.00,WNW,295,17.0,29.0,7,0.00,,,0.00,75.000000,,2013-07-01 03:23:00,
2013-06-30 20:52:00,96.0,28.0,-100.00,WNW,297,17.0,34.0,9,0.00,,,0.00,19.000000,,2013-07-01 03:52:00,
2013-06-30 21:01:00,96.0,28.0,-100.00,WNW,297,17.0,34.0,9,0.00,,,0.00,19.000000,,2013-07-01 04:01:00,
2013-06-30 21:11:00,96.0,28.0,-100.00,WNW,297,17.0,34.0,9,0.00,,,0.00,19.000000,,2013-07-01 04:11:00,
2013-06-30 21:22:00,96.0,28.0,-100.00,WNW,297,17.0,34.0,9,0.00,,,0.00,19.000000,,2013-07-01 04:22:00,
2013-06-30 21:53:00,97.0,26.0,-100.00,NW,304,22.0,33.0,8,0.00,,,0.00,0.000000,,2013-07-01 04:53:00,
2013-06-30 22:01:00,97.0,26.0,-100.00,NW,304,22.0,33.0,8,0.00,,,0.00,0.000000,,2013-07-01 05:01:00,
2013-06-30 22:11:00,97.0,26.0,-100.00,NW,304,22.0,33.0,8,0.00,,,0.00,0.000000,,2013-07-01 05:11:00,
2013-06-30 22:22:00,97.0,26.0,-100.00,NW,304,22.0,33.0,8,0.00,,,0.00,0.000000,,2013-07-01 05:22:00,
2013-06-30 22:52:00,95.0,24.0,-100.00,NW,306,24.0,32.0,8,0.00,,,0.00,0.000000,,2013-07-01 05:52:00,
2013-06-30 23:02:00,95.0,24.0,-100.00,NW,306,24.0,32.0,8,0.00,,,0.00,0.000000,,2013-07-01 06:02:00,
2013-06-30 23:12:00,95.0,24.0,-100.00,NW,306,24.0,32.0,8,0.00,,,0.00,0.000000,,2013-07-01 06:12:00,
2013-06-30 23:24:00,95.0,24.0,-100.00,NW,306,24.0,32.0,8,0.00,,,0.00,0.000000,,2013-07-01 06:24:00,
2013-06-30 23:53:00,96.0,25.0,-100.00,WNW,300,21.0,31.0,8,0.00,,,0.00,0.000000,,2013-07-01 06:53:00,